Terminal Aerodrome Forecast
Issued by NWS Wilmington, NC

Home | Current Version | Previous Version | Text Only | Print | Product List | Glossary On
Versions: 1 2 3 4 5 6 7 8 9 10 11 12 13 14 15 16
000
FTUS42 KILM 062320
TAFFLO
TAF
KFLO 062320Z 0700/0724 19006KT P6SM SCT025 SCT050
     FM070200 20004KT P6SM FEW030
     FM071100 21002KT 5SM BR FEW030
     FM071300 22005KT P6SM FEW030
     FM071800 21008KT P6SM SCT250=

USA.gov is the U.S. government's official web portal to all federal, state and local government web resources and services.